Time,TemperatureF,DewpointF,PressureIn,WindDirection,WindDirectionDegrees,WindSpeedMPH,WindSpeedGustMPH,Humidity,HourlyPrecipIn,Conditions,Clouds,dailyrainin,SolarRadiationWatts/m^2,SoftwareType,DateUTC
2013-08-24 00:02:00,80.4,73.8,29.99,NE,42,2.0,5.0,80,0.00,,,0.00,0.0,meteohub,2013-08-24 05:02:00,
2013-08-24 00:07:00,80.2,73.9,29.99,NE,41,0.0,5.0,81,0.00,,,0.00,0.0,meteohub,2013-08-24 05:07:00,
2013-08-24 00:12:00,80.1,73.8,29.99,NE,35,2.0,6.0,81,0.00,,,0.00,0.0,meteohub,2013-08-24 05:12:00,
2013-08-24 00:17:00,79.9,73.6,29.99,East,90,0.0,6.0,81,0.00,,,0.00,0.0,meteohub,2013-08-24 05:17:00,
2013-08-24 00:22:00,79.9,73.6,29.99,NE,42,0.0,6.0,81,0.00,,,0.00,0.0,meteohub,2013-08-24 05:22:00,
2013-08-24 00:27:00,79.5,73.2,29.99,ESE,110,3.0,6.0,81,0.00,,,0.00,0.0,meteohub,2013-08-24 05:27:00,
2013-08-24 00:32:00,79.3,73.0,29.99,NE,40,0.0,6.0,81,0.00,,,0.00,0.0,meteohub,2013-08-24 05:32:00,
2013-08-24 00:37:00,79.3,73.4,29.99,NE,54,0.0,6.0,82,0.00,,,0.00,0.0,meteohub,2013-08-24 05:37:00,
2013-08-24 00:42:00,79.2,73.2,29.99,East,83,0.0,5.0,82,0.00,,,0.00,0.0,meteohub,2013-08-24 05:42:00,
2013-08-24 00:47:00,79.0,73.0,29.99,NE,54,0.0,5.0,82,0.00,,,0.00,0.0,meteohub,2013-08-24 05:47:00,
2013-08-24 00:52:00,78.8,72.9,29.99,NE,55,0.0,1.0,82,0.00,,,0.00,0.0,meteohub,2013-08-24 05:52:00,
2013-08-24 00:57:00,78.6,72.7,29.99,NE,54,0.0,1.0,82,0.00,,,0.00,0.0,meteohub,2013-08-24 05:57:00,
2013-08-24 01:02:00,78.6,72.7,29.99,NE,55,0.0,1.0,82,0.00,,,0.00,0.0,meteohub,2013-08-24 06:02:00,
2013-08-24 01:07:00,78.6,72.7,29.99,NE,55,0.0,1.0,82,0.00,,,0.00,0.0,meteohub,2013-08-24 06:07:00,
2013-08-24 01:12:00,78.6,72.7,29.99,NE,55,0.0,0.0,82,0.00,,,0.00,0.0,meteohub,2013-08-24 06:12:00,
2013-08-24 01:17:00,78.4,72.9,29.99,NE,55,0.0,0.0,83,0.00,,,0.00,0.0,meteohub,2013-08-24 06:17:00,
2013-08-24 01:22:00,78.3,72.7,29.99,NE,54,0.0,0.0,83,0.00,,,0.00,0.0,meteohub,2013-08-24 06:22:00,
2013-08-24 01:27:00,78.1,72.5,29.99,NE,55,0.0,0.0,83,0.00,,,0.00,0.0,meteohub,2013-08-24 06:27:00,
2013-08-24 01:32:00,78.1,72.5,29.99,NE,54,0.0,0.0,83,0.00,,,0.00,0.0,meteohub,2013-08-24 06:32:00,
2013-08-24 01:37:00,77.7,72.5,29.98,NE,54,0.0,0.0,84,0.00,,,0.00,0.0,meteohub,2013-08-24 06:37:00,
2013-08-24 01:42:00,77.7,72.5,29.98,NE,55,0.0,0.0,84,0.00,,,0.00,0.0,meteohub,2013-08-24 06:42:00,
2013-08-24 01:47:00,77.5,72.3,29.98,NE,55,0.0,0.0,84,0.00,,,0.00,0.0,meteohub,2013-08-24 06:47:00,
2013-08-24 01:52:00,77.4,72.5,29.98,NE,55,0.0,3.0,85,0.00,,,0.00,0.0,meteohub,2013-08-24 06:52:00,
2013-08-24 01:57:00,77.4,72.5,29.98,NE,54,0.0,3.0,85,0.00,,,0.00,0.0,meteohub,2013-08-24 06:57:00,
2013-08-24 02:02:00,77.2,72.3,29.98,NE,55,0.0,3.0,85,0.00,,,0.00,0.0,meteohub,2013-08-24 07:02:00,
2013-08-24 02:07:00,77.2,72.3,29.98,NE,54,0.0,3.0,85,0.00,,,0.00,0.0,meteohub,2013-08-24 07:07:00,
2013-08-24 02:12:00,77.0,72.5,29.98,NE,55,0.0,1.0,86,0.00,,,0.00,0.0,meteohub,2013-08-24 07:12:00,
2013-08-24 02:18:00,76.8,72.3,29.98,NE,54,0.0,1.0,86,0.00,,,0.00,0.0,meteohub,2013-08-24 07:18:00,
2013-08-24 02:23:00,76.8,72.3,29.98,NE,55,0.0,1.0,86,0.00,,,0.00,0.0,meteohub,2013-08-24 07:23:00,
2013-08-24 02:28:00,76.6,72.1,29.98,NE,56,0.0,1.0,86,0.00,,,0.00,0.0,meteohub,2013-08-24 07:28:00,
2013-08-24 02:33:00,76.6,72.1,29.98,NE,56,0.0,2.0,86,0.00,,,0.00,0.0,meteohub,2013-08-24 07:33:00,
2013-08-24 02:38:00,76.6,72.5,29.98,NE,54,0.0,2.0,87,0.00,,,0.00,0.0,meteohub,2013-08-24 07:38:00,
2013-08-24 02:43:00,76.5,72.3,29.98,NE,54,0.0,2.0,87,0.00,,,0.00,0.0,meteohub,2013-08-24 07:43:00,
2013-08-24 02:48:00,76.5,72.3,29.98,NE,54,0.0,2.0,87,0.00,,,0.00,0.0,meteohub,2013-08-24 07:48:00,
2013-08-24 02:53:00,76.5,72.3,29.97,NE,54,0.0,1.0,87,0.00,,,0.00,0.0,meteohub,2013-08-24 07:53:00,
2013-08-24 02:58:00,76.3,72.1,29.98,NE,54,0.0,0.0,87,0.00,,,0.00,0.0,meteohub,2013-08-24 07:58:00,
2013-08-24 03:03:00,76.3,72.1,29.98,NE,54,0.0,0.0,87,0.00,,,0.00,0.0,meteohub,2013-08-24 08:03:00,
2013-08-24 03:08:00,76.1,72.0,29.98,NE,54,0.0,0.0,87,0.00,,,0.00,0.0,meteohub,2013-08-24 08:08:00,
2013-08-24 03:13:00,76.1,72.0,29.98,NE,54,0.0,1.0,87,0.00,,,0.00,0.0,meteohub,2013-08-24 08:13:00,
2013-08-24 03:18:00,75.9,72.1,29.98,NE,54,0.0,1.0,88,0.00,,,0.00,0.0,meteohub,2013-08-24 08:18:00,
2013-08-24 03:23:00,75.9,72.1,29.98,NE,54,0.0,1.0,88,0.00,,,0.00,0.0,meteohub,2013-08-24 08:23:00,
2013-08-24 03:28:00,75.9,72.1,29.98,NE,54,0.0,1.0,88,0.00,,,0.00,0.0,meteohub,2013-08-24 08:28:00,
2013-08-24 03:33:00,75.7,72.0,29.98,NE,54,0.0,1.0,88,0.00,,,0.00,0.0,meteohub,2013-08-24 08:33:00,
2013-08-24 03:38:00,75.7,72.0,29.98,NE,54,0.0,1.0,88,0.00,,,0.00,0.0,meteohub,2013-08-24 08:38:00,
2013-08-24 03:43:00,75.7,72.0,29.98,NE,54,0.0,0.0,88,0.00,,,0.00,0.0,meteohub,2013-08-24 08:43:00,
2013-08-24 03:48:00,75.7,72.3,29.98,NE,54,0.0,0.0,89,0.00,,,0.00,0.0,meteohub,2013-08-24 08:48:00,
2013-08-24 03:53:00,75.6,72.1,29.98,NE,54,0.0,0.0,89,0.00,,,0.00,0.0,meteohub,2013-08-24 08:53:00,
2013-08-24 03:58:00,75.6,72.1,29.98,NE,54,0.0,0.0,89,0.00,,,0.00,0.0,meteohub,2013-08-24 08:58:00,
2013-08-24 04:03:00,75.6,72.1,29.98,NE,55,0.0,0.0,89,0.00,,,0.00,0.0,meteohub,2013-08-24 09:03:00,
2013-08-24 04:08:00,75.4,71.6,29.98,NE,55,0.0,0.0,88,0.00,,,0.00,0.0,meteohub,2013-08-24 09:08:00,
2013-08-24 04:13:00,75.4,72.0,29.98,NE,54,0.0,0.0,89,0.00,,,0.00,0.0,meteohub,2013-08-24 09:13:00,
2013-08-24 04:18:00,75.4,72.0,29.99,NE,54,0.0,0.0,89,0.00,,,0.00,0.0,meteohub,2013-08-24 09:18:00,
2013-08-24 04:23:00,75.2,71.8,29.99,NE,55,0.0,0.0,89,0.00,,,0.00,0.0,meteohub,2013-08-24 09:23:00,
2013-08-24 04:28:00,75.0,71.6,29.99,NE,54,0.0,0.0,89,0.00,,,0.00,0.0,meteohub,2013-08-24 09:28:00,
2013-08-24 04:33:00,74.8,71.4,29.99,NE,54,0.0,0.0,89,0.00,,,0.00,0.0,meteohub,2013-08-24 09:33:00,
2013-08-24 04:38:00,74.8,71.4,29.99,NE,54,0.0,0.0,89,0.00,,,0.00,0.0,meteohub,2013-08-24 09:38:00,
2013-08-24 04:43:00,74.7,71.2,29.99,NE,54,0.0,0.0,89,0.00,,,0.00,0.0,meteohub,2013-08-24 09:43:00,
2013-08-24 04:48:00,74.5,71.1,29.99,NE,54,0.0,0.0,89,0.00,,,0.00,0.0,meteohub,2013-08-24 09:48:00,
2013-08-24 04:54:00,74.5,71.1,29.99,NE,54,0.0,0.0,89,0.00,,,0.00,0.0,meteohub,2013-08-24 09:54:00,
2013-08-24 04:59:00,74.5,71.1,29.99,NE,54,0.0,0.0,89,0.00,,,0.00,0.0,meteohub,2013-08-24 09:59:00,
2013-08-24 05:04:00,74.5,71.4,29.99,NE,54,0.0,0.0,90,0.00,,,0.00,0.0,meteohub,2013-08-24 10:04:00,
2013-08-24 05:09:00,74.3,71.2,29.99,NE,54,0.0,0.0,90,0.00,,,0.00,0.0,meteohub,2013-08-24 10:09:00,
2013-08-24 05:14:00,74.1,71.1,29.99,NE,54,0.0,0.0,90,0.00,,,0.00,0.0,meteohub,2013-08-24 10:14:00,
2013-08-24 05:19:00,74.3,71.4,29.99,NE,55,0.0,0.0,91,0.00,,,0.00,0.0,meteohub,2013-08-24 10:19:00,
2013-08-24 05:24:00,74.1,71.2,29.99,NE,55,0.0,0.0,91,0.00,,,0.00,0.0,meteohub,2013-08-24 10:24:00,
2013-08-24 05:29:00,74.1,71.1,29.99,NE,55,0.0,0.0,90,0.00,,,0.00,0.0,meteohub,2013-08-24 10:29:00,
2013-08-24 05:34:00,73.9,70.9,29.99,NE,54,0.0,0.0,90,0.00,,,0.00,0.0,meteohub,2013-08-24 10:34:00,
2013-08-24 05:39:00,73.9,71.1,29.99,NE,54,0.0,0.0,91,0.00,,,0.00,0.0,meteohub,2013-08-24 10:39:00,
2013-08-24 05:44:00,73.8,70.9,29.99,NE,55,0.0,0.0,91,0.00,,,0.00,0.0,meteohub,2013-08-24 10:44:00,
2013-08-24 05:49:00,73.8,70.9,29.99,NE,54,0.0,0.0,91,0.00,,,0.00,0.0,meteohub,2013-08-24 10:49:00,
2013-08-24 05:54:00,73.9,71.1,30.00,NE,54,0.0,0.0,91,0.00,,,0.00,0.0,meteohub,2013-08-24 10:54:00,
2013-08-24 05:59:00,73.8,70.9,30.00,NE,54,0.0,0.0,91,0.00,,,0.00,0.0,meteohub,2013-08-24 10:59:00,
2013-08-24 06:04:00,73.8,71.2,30.00,NE,54,0.0,0.0,92,0.00,,,0.00,0.0,meteohub,2013-08-24 11:04:00,
2013-08-24 06:09:00,73.8,71.2,30.00,NE,55,0.0,0.0,92,0.00,,,0.00,0.0,meteohub,2013-08-24 11:09:00,
2013-08-24 06:14:00,73.8,71.2,30.00,NE,54,0.0,0.0,92,0.00,,,0.00,0.0,meteohub,2013-08-24 11:14:00,
2013-08-24 06:19:00,73.8,71.2,30.00,NE,54,0.0,0.0,92,0.00,,,0.00,0.0,meteohub,2013-08-24 11:19:00,
2013-08-24 06:24:00,73.6,71.1,30.01,NE,54,0.0,0.0,92,0.00,,,0.00,0.0,meteohub,2013-08-24 11:24:00,
2013-08-24 06:29:00,73.6,71.1,30.01,NE,55,0.0,0.0,92,0.00,,,0.00,0.0,meteohub,2013-08-24 11:29:00,
2013-08-24 06:34:00,73.4,70.9,30.01,NE,54,0.0,0.0,92,0.00,,,0.00,0.0,meteohub,2013-08-24 11:34:00,
2013-08-24 06:39:00,73.4,70.9,30.01,NE,54,0.0,0.0,92,0.00,,,0.00,0.0,meteohub,2013-08-24 11:39:00,
2013-08-24 06:44:00,73.4,70.9,30.02,NE,54,0.0,0.0,92,0.00,,,0.00,0.0,meteohub,2013-08-24 11:44:00,
2013-08-24 06:49:00,73.4,71.2,30.02,NE,54,0.0,0.0,93,0.00,,,0.00,7.0,meteohub,2013-08-24 11:49:00,
2013-08-24 06:54:00,73.6,71.4,30.02,NE,54,0.0,0.0,93,0.00,,,0.00,9.0,meteohub,2013-08-24 11:54:00,
2013-08-24 06:59:00,73.6,71.4,30.02,NE,54,0.0,0.0,93,0.00,,,0.00,12.0,meteohub,2013-08-24 11:59:00,
2013-08-24 07:04:00,73.6,71.4,30.02,NE,54,0.0,0.0,93,0.00,,,0.00,18.0,meteohub,2013-08-24 12:04:00,
2013-08-24 07:09:00,73.6,71.4,30.03,NE,55,0.0,0.0,93,0.00,,,0.00,23.0,meteohub,2013-08-24 12:09:00,
2013-08-24 07:14:00,73.6,71.8,30.03,NE,54,0.0,0.0,94,0.00,,,0.00,26.0,meteohub,2013-08-24 12:14:00,
2013-08-24 07:19:00,73.6,71.8,30.03,NE,54,0.0,0.0,94,0.00,,,0.00,30.0,meteohub,2013-08-24 12:19:00,
2013-08-24 07:24:00,73.6,71.8,30.03,NE,54,0.0,0.0,94,0.00,,,0.00,33.0,meteohub,2013-08-24 12:24:00,
2013-08-24 07:29:00,73.8,72.0,30.03,NE,54,0.0,0.0,94,0.00,,,0.00,35.0,meteohub,2013-08-24 12:29:00,
2013-08-24 07:34:00,73.9,72.1,30.04,NE,54,0.0,0.0,94,0.00,,,0.00,40.0,meteohub,2013-08-24 12:34:00,
2013-08-24 07:39:00,73.9,72.1,30.04,NE,53,1.0,1.0,94,0.00,,,0.00,44.0,meteohub,2013-08-24 12:39:00,
2013-08-24 07:44:00,74.1,72.3,30.04,NNE,17,2.0,2.0,94,0.00,,,0.00,47.0,meteohub,2013-08-24 12:44:00,
2013-08-24 07:49:00,74.3,72.5,30.03,NNE,17,0.0,1.0,94,0.00,,,0.00,49.0,meteohub,2013-08-24 12:49:00,
2013-08-24 07:55:00,74.5,73.0,30.04,NNE,15,0.0,2.0,95,0.00,,,0.00,60.0,meteohub,2013-08-24 12:55:00,
2013-08-24 08:00:00,74.7,73.2,30.04,NNE,15,0.0,2.0,95,0.00,,,0.00,93.0,meteohub,2013-08-24 13:00:00,
2013-08-24 08:05:00,74.8,73.2,30.04,NNE,15,0.0,2.0,95,0.00,,,0.00,97.0,meteohub,2013-08-24 13:05:00,
2013-08-24 08:10:00,76.3,74.5,30.04,NNE,21,0.0,2.0,94,0.00,,,0.00,174.0,meteohub,2013-08-24 13:10:00,
2013-08-24 08:15:00,77.2,74.7,30.04,NNE,17,0.0,1.0,92,0.00,,,0.00,186.0,meteohub,2013-08-24 13:15:00,
2013-08-24 08:20:00,77.5,74.1,30.04,NE,40,3.0,6.0,89,0.00,,,0.00,204.0,meteohub,2013-08-24 13:20:00,
2013-08-24 08:25:00,78.1,73.9,30.04,NNW,331,0.0,6.0,87,0.00,,,0.00,229.0,meteohub,2013-08-24 13:25:00,
2013-08-24 08:30:00,78.3,73.4,30.04,North,5,0.0,6.0,85,0.00,,,0.00,253.0,meteohub,2013-08-24 13:30:00,
2013-08-24 08:35:00,78.6,73.8,30.04,NE,42,0.0,6.0,85,0.00,,,0.00,276.0,meteohub,2013-08-24 13:35:00,
2013-08-24 08:40:00,79.0,74.1,30.04,NE,56,0.0,6.0,85,0.00,,,0.00,288.0,meteohub,2013-08-24 13:40:00,
2013-08-24 08:45:00,79.5,74.3,30.04,NE,56,0.0,6.0,84,0.00,,,0.00,299.0,meteohub,2013-08-24 13:45:00,
2013-08-24 08:50:00,79.9,73.9,30.04,NE,37,0.0,4.0,82,0.00,,,0.00,308.0,meteohub,2013-08-24 13:50:00,
2013-08-24 08:55:00,80.4,74.8,30.04,NE,42,0.0,4.0,83,0.00,,,0.00,316.0,meteohub,2013-08-24 13:55:00,
2013-08-24 09:00:00,80.8,74.5,30.04,NNE,32,0.0,4.0,81,0.00,,,0.00,329.0,meteohub,2013-08-24 14:00:00,
2013-08-24 09:05:00,81.0,74.7,30.04,NNE,29,0.0,4.0,81,0.00,,,0.00,343.0,meteohub,2013-08-24 14:05:00,
2013-08-24 09:10:00,81.1,74.3,30.04,NNW,332,2.0,4.0,80,-99.99,,,0.00,359.0,meteohub,2013-08-24 14:10:00,
2013-08-24 09:15:00,81.1,73.9,30.04,NNE,19,1.0,6.0,79,0.00,,,0.00,381.0,meteohub,2013-08-24 14:15:00,
2013-08-24 09:20:00,81.5,74.3,30.04,NNE,21,0.0,11.0,79,0.00,,,0.00,401.0,meteohub,2013-08-24 14:20:00,
2013-08-24 09:25:00,81.9,74.3,30.04,NNE,33,5.0,11.0,78,0.00,,,0.00,422.0,meteohub,2013-08-24 14:25:00,
2013-08-24 09:30:00,82.0,74.5,30.04,NNE,24,0.0,11.0,78,0.00,,,0.00,438.0,meteohub,2013-08-24 14:30:00,
2013-08-24 09:35:00,82.6,74.7,30.04,NNW,348,0.0,5.0,77,0.00,,,0.00,450.0,meteohub,2013-08-24 14:35:00,
2013-08-24 09:40:00,82.8,73.9,30.04,NNE,32,0.0,5.0,75,0.00,,,0.00,457.0,meteohub,2013-08-24 14:40:00,
2013-08-24 09:45:00,82.9,74.1,30.05,NNW,329,0.0,5.0,75,0.00,,,0.00,482.0,meteohub,2013-08-24 14:45:00,
2013-08-24 09:50:00,83.1,75.2,30.05,NE,36,0.0,5.0,77,0.00,,,0.00,508.0,meteohub,2013-08-24 14:50:00,
2013-08-24 09:55:00,83.7,74.8,30.04,ENE,73,0.0,6.0,75,0.00,,,0.00,504.0,meteohub,2013-08-24 14:55:00,
2013-08-24 10:00:00,83.8,75.0,30.04,NNE,14,0.0,5.0,75,0.00,,,0.00,545.0,meteohub,2013-08-24 15:00:00,
2013-08-24 10:05:00,84.0,74.8,30.05,NE,34,0.0,5.0,74,0.00,,,0.00,587.0,meteohub,2013-08-24 15:05:00,
2013-08-24 10:10:00,83.8,74.7,30.05,NE,34,0.0,5.0,74,0.00,,,0.00,589.0,meteohub,2013-08-24 15:10:00,
2013-08-24 10:15:00,83.3,74.1,30.05,NE,52,0.0,7.0,74,0.00,,,0.00,162.0,meteohub,2013-08-24 15:15:00,
2013-08-24 10:20:00,84.2,75.7,30.05,NNW,344,4.0,7.0,76,0.00,,,0.00,661.0,meteohub,2013-08-24 15:20:00,
2013-08-24 10:25:00,84.6,75.0,30.05,North,9,0.0,7.0,73,0.00,,,0.00,664.0,meteohub,2013-08-24 15:25:00,
2013-08-24 10:30:00,84.6,75.0,30.05,NNE,32,0.0,7.0,73,0.00,,,0.00,643.0,meteohub,2013-08-24 15:30:00,
2013-08-24 10:35:00,84.6,74.5,30.05,NE,54,4.0,7.0,72,0.00,,,0.00,276.0,meteohub,2013-08-24 15:35:00,
2013-08-24 10:40:00,83.7,74.1,30.05,NW,323,3.0,7.0,73,0.00,,,0.00,211.0,meteohub,2013-08-24 15:40:00,
2013-08-24 10:45:00,83.3,74.5,30.05,WNW,288,0.0,7.0,75,0.00,,,0.00,745.0,meteohub,2013-08-24 15:45:00,
2013-08-24 10:50:00,84.9,74.8,30.05,North,7,1.0,7.0,72,0.00,,,0.00,714.0,meteohub,2013-08-24 15:50:00,
2013-08-24 10:55:00,85.3,74.8,30.05,North,350,0.0,7.0,71,0.00,,,0.00,705.0,meteohub,2013-08-24 15:55:00,
2013-08-24 11:00:00,85.6,75.2,30.05,NE,46,2.0,9.0,71,0.00,,,0.00,747.0,meteohub,2013-08-24 16:00:00,
2013-08-24 11:05:00,84.7,74.3,30.05,NNE,22,0.0,9.0,71,0.00,,,0.00,179.0,meteohub,2013-08-24 16:05:00,
2013-08-24 11:10:00,83.8,74.7,30.05,NNW,340,6.0,9.0,74,0.00,,,0.00,796.0,meteohub,2013-08-24 16:10:00,
2013-08-24 11:15:00,83.8,73.8,30.05,NW,318,0.0,9.0,72,0.00,,,0.00,846.0,meteohub,2013-08-24 16:15:00,
2013-08-24 11:20:00,83.8,74.3,30.05,NNW,333,1.0,9.0,73,0.00,,,0.00,209.0,meteohub,2013-08-24 16:20:00,
2013-08-24 11:25:00,84.4,74.8,30.05,North,2,0.0,9.0,73,0.00,,,0.00,986.0,meteohub,2013-08-24 16:25:00,
2013-08-24 11:30:00,84.7,74.3,30.04,West,280,0.0,5.0,71,0.00,,,0.00,986.0,meteohub,2013-08-24 16:30:00,
2013-08-24 11:35:00,84.0,73.6,30.04,North,358,2.0,5.0,71,0.00,,,0.00,153.0,meteohub,2013-08-24 16:35:00,
2013-08-24 11:40:00,84.2,74.1,30.04,North,9,1.0,10.0,72,0.00,,,0.00,932.0,meteohub,2013-08-24 16:40:00,
2013-08-24 11:45:00,85.6,74.7,30.04,NNE,30,0.0,10.0,70,0.00,,,0.00,946.0,meteohub,2013-08-24 16:45:00,
2013-08-24 11:50:00,86.7,74.8,30.04,NE,38,1.0,10.0,68,0.00,,,0.00,995.0,meteohub,2013-08-24 16:50:00,
2013-08-24 11:55:00,86.5,74.7,30.04,NW,309,0.0,10.0,68,0.00,,,0.00,292.0,meteohub,2013-08-24 16:55:00,
2013-08-24 12:00:00,86.5,75.9,30.04,NNE,32,0.0,7.0,71,0.00,,,0.00,1139.0,meteohub,2013-08-24 17:00:00,
2013-08-24 12:05:00,86.7,74.8,30.04,NW,323,0.0,7.0,68,0.00,,,0.00,1020.0,meteohub,2013-08-24 17:05:00,
2013-08-24 12:10:00,86.7,75.7,30.04,NW,323,2.0,7.0,70,0.00,,,0.00,1023.0,meteohub,2013-08-24 17:10:00,
2013-08-24 12:15:00,87.3,75.0,30.04,NE,36,0.0,6.0,67,0.00,,,0.00,1079.0,meteohub,2013-08-24 17:15:00,
2013-08-24 12:20:00,86.5,74.7,30.04,NNE,32,0.0,7.0,68,0.00,,,0.00,343.0,meteohub,2013-08-24 17:20:00,
2013-08-24 12:25:00,85.6,73.9,30.04,WSW,252,0.0,7.0,68,0.00,,,0.00,1035.0,meteohub,2013-08-24 17:25:00,
2013-08-24 12:30:00,86.9,75.0,30.04,NNW,348,0.0,7.0,68,0.00,,,0.00,995.0,meteohub,2013-08-24 17:30:00,
2013-08-24 12:35:00,87.6,74.3,30.04,NE,37,0.0,6.0,65,0.00,,,0.00,990.0,meteohub,2013-08-24 17:35:00,
2013-08-24 12:41:00,87.1,73.4,30.03,WNW,296,0.0,6.0,64,0.00,,,0.00,183.0,meteohub,2013-08-24 17:41:00,
2013-08-24 12:46:00,86.7,73.6,30.03,ENE,65,0.0,10.0,65,0.00,,,0.00,1000.0,meteohub,2013-08-24 17:46:00,
2013-08-24 12:51:00,87.6,73.9,30.03,North,6,4.0,10.0,64,0.00,,,0.00,1018.0,meteohub,2013-08-24 17:51:00,
2013-08-24 12:56:00,88.3,75.0,30.03,West,267,0.0,10.0,65,0.00,,,0.00,1093.0,meteohub,2013-08-24 17:56:00,
2013-08-24 13:01:00,87.1,73.9,30.03,NNE,20,1.0,10.0,65,0.00,,,0.00,251.0,meteohub,2013-08-24 18:01:00,
2013-08-24 13:06:00,87.4,74.7,30.03,West,281,0.0,10.0,66,0.00,,,0.00,1060.0,meteohub,2013-08-24 18:06:00,
2013-08-24 13:11:00,88.0,75.2,30.03,North,354,0.0,10.0,66,0.00,,,0.00,1074.0,meteohub,2013-08-24 18:11:00,
2013-08-24 13:16:00,87.6,74.3,30.03,NNW,348,0.0,5.0,65,0.00,,,0.00,193.0,meteohub,2013-08-24 18:16:00,
2013-08-24 13:21:00,86.9,73.8,30.03,SW,233,0.0,7.0,65,0.00,,,0.00,137.0,meteohub,2013-08-24 18:21:00,
2013-08-24 13:26:00,87.6,73.9,30.03,ENE,66,5.0,7.0,64,0.00,,,0.00,965.0,meteohub,2013-08-24 18:26:00,
2013-08-24 13:31:00,88.9,74.7,30.03,North,358,2.0,7.0,63,0.00,,,0.00,1002.0,meteohub,2013-08-24 18:31:00,
2013-08-24 13:36:00,89.2,75.0,30.03,NNW,346,5.0,9.0,63,0.00,,,0.00,1058.0,meteohub,2013-08-24 18:36:00,
2013-08-24 13:41:00,88.2,74.5,30.03,NW,318,3.0,9.0,64,0.00,,,0.00,301.0,meteohub,2013-08-24 18:41:00,
2013-08-24 13:46:00,88.7,74.5,30.02,NNW,337,0.0,10.0,63,0.00,,,0.00,1092.0,meteohub,2013-08-24 18:46:00,
2013-08-24 13:51:00,88.2,73.9,30.02,NNW,344,3.0,10.0,63,0.00,,,0.00,209.0,meteohub,2013-08-24 18:51:00,
2013-08-24 13:56:00,87.3,74.1,30.02,NNE,15,1.0,17.0,65,0.00,,,0.00,909.0,meteohub,2013-08-24 18:56:00,
2013-08-24 14:01:00,88.5,73.8,30.02,NNE,17,1.0,10.0,62,0.00,,,0.00,912.0,meteohub,2013-08-24 19:01:00,
2013-08-24 14:06:00,89.8,74.5,30.02,North,9,0.0,10.0,61,0.00,,,0.00,995.0,meteohub,2013-08-24 19:06:00,
2013-08-24 14:11:00,90.3,73.6,30.02,NE,38,2.0,10.0,58,0.00,,,0.00,932.0,meteohub,2013-08-24 19:11:00,
2013-08-24 14:16:00,90.3,75.0,30.02,NNE,32,1.0,9.0,61,0.00,,,0.00,997.0,meteohub,2013-08-24 19:16:00,
2013-08-24 14:21:00,89.4,73.2,30.02,North,10,0.0,7.0,59,0.00,,,0.00,113.0,meteohub,2013-08-24 19:21:00,
2013-08-24 14:26:00,89.8,75.0,30.02,North,358,0.0,7.0,62,0.00,,,0.00,937.0,meteohub,2013-08-24 19:26:00,
2013-08-24 14:31:00,90.7,74.3,30.02,NNE,25,1.0,7.0,59,0.00,,,0.00,997.0,meteohub,2013-08-24 19:31:00,
2013-08-24 14:36:00,90.0,73.8,30.02,North,354,1.0,9.0,59,0.00,,,0.00,167.0,meteohub,2013-08-24 19:36:00,
2013-08-24 14:41:00,89.6,74.3,30.01,North,10,1.0,9.0,61,0.00,,,0.00,921.0,meteohub,2013-08-24 19:41:00,
2013-08-24 14:46:00,88.9,73.8,30.01,NNE,20,0.0,12.0,61,0.00,,,0.00,125.0,meteohub,2013-08-24 19:46:00,
2013-08-24 14:51:00,89.6,73.9,30.01,North,356,5.0,12.0,60,0.00,,,0.00,846.0,meteohub,2013-08-24 19:51:00,
2013-08-24 14:56:00,89.8,73.6,30.01,North,3,5.0,7.0,59,0.00,,,0.00,809.0,meteohub,2013-08-24 19:56:00,
2013-08-24 15:01:00,89.8,73.6,30.00,NE,56,2.0,11.0,59,0.00,,,0.00,805.0,meteohub,2013-08-24 20:01:00,
2013-08-24 15:06:00,90.3,73.6,30.00,NE,35,5.0,11.0,58,0.00,,,0.00,823.0,meteohub,2013-08-24 20:06:00,
2013-08-24 15:11:00,90.1,73.4,30.00,NNW,340,0.0,11.0,58,0.00,,,0.00,867.0,meteohub,2013-08-24 20:11:00,
2013-08-24 15:16:00,89.8,74.1,30.00,NE,39,2.0,10.0,60,0.00,,,0.00,165.0,meteohub,2013-08-24 20:16:00,
2013-08-24 15:21:00,89.6,73.9,30.00,NNE,28,5.0,7.0,60,0.00,,,0.00,682.0,meteohub,2013-08-24 20:21:00,
2013-08-24 15:26:00,89.8,74.1,30.00,NNE,30,2.0,11.0,60,0.00,,,0.00,244.0,meteohub,2013-08-24 20:26:00,
2013-08-24 15:31:00,89.8,73.6,30.00,NNE,27,2.0,11.0,59,0.00,,,0.00,343.0,meteohub,2013-08-24 20:31:00,
2013-08-24 15:36:00,89.1,73.4,30.00,NNE,31,0.0,11.0,60,0.00,,,0.00,77.0,meteohub,2013-08-24 20:36:00,
2013-08-24 15:41:00,88.2,73.4,30.00,NNE,23,0.0,11.0,62,0.00,,,0.00,104.0,meteohub,2013-08-24 20:41:00,
2013-08-24 15:46:00,88.3,74.1,30.00,NE,34,3.0,11.0,63,0.00,,,0.00,181.0,meteohub,2013-08-24 20:46:00,
2013-08-24 15:52:00,89.1,73.4,30.00,NE,44,0.0,11.0,60,0.00,,,0.00,239.0,meteohub,2013-08-24 20:52:00,
2013-08-24 15:57:00,89.2,73.6,30.00,NNW,346,0.0,6.0,60,0.00,,,0.00,327.0,meteohub,2013-08-24 20:57:00,
2013-08-24 16:02:00,89.4,73.8,30.00,NNE,19,1.0,6.0,60,0.00,,,0.00,294.0,meteohub,2013-08-24 21:02:00,
2013-08-24 16:07:00,89.2,73.0,29.99,NNE,21,1.0,9.0,59,0.00,,,0.00,292.0,meteohub,2013-08-24 21:07:00,
2013-08-24 16:12:00,89.4,74.1,30.00,North,6,0.0,9.0,61,0.00,,,0.00,149.0,meteohub,2013-08-24 21:12:00,
2013-08-24 16:17:00,89.6,73.9,30.00,NE,38,2.0,9.0,60,0.00,,,0.00,149.0,meteohub,2013-08-24 21:17:00,
2013-08-24 16:22:00,89.8,74.5,30.00,NNE,21,0.0,8.0,61,0.00,,,0.00,137.0,meteohub,2013-08-24 21:22:00,
2013-08-24 16:27:00,89.4,73.8,30.00,NE,41,0.0,8.0,60,0.00,,,0.00,153.0,meteohub,2013-08-24 21:27:00,
2013-08-24 16:32:00,89.1,73.4,30.00,North,354,1.0,8.0,60,0.00,,,0.00,179.0,meteohub,2013-08-24 21:32:00,
2013-08-24 16:37:00,89.4,73.8,30.00,NW,318,2.0,6.0,60,0.00,,,0.00,109.0,meteohub,2013-08-24 21:37:00,
2013-08-24 16:42:00,89.4,73.8,30.00,NE,36,0.0,6.0,60,0.00,,,0.00,97.0,meteohub,2013-08-24 21:42:00,
2013-08-24 16:47:00,88.3,73.6,29.99,NE,48,1.0,6.0,62,0.00,,,0.00,149.0,meteohub,2013-08-24 21:47:00,
2013-08-24 16:52:00,88.9,74.1,29.99,NE,46,0.0,6.0,62,0.00,,,0.00,125.0,meteohub,2013-08-24 21:52:00,
2013-08-24 16:57:00,89.1,73.9,29.99,NNE,33,0.0,10.0,61,0.00,,,0.00,105.0,meteohub,2013-08-24 21:57:00,
2013-08-24 17:02:00,89.1,73.9,29.99,NE,52,0.0,10.0,61,0.00,,,0.00,121.0,meteohub,2013-08-24 22:02:00,
2013-08-24 17:07:00,89.2,73.0,29.99,NNE,25,0.0,10.0,59,0.00,,,0.00,125.0,meteohub,2013-08-24 22:07:00,
2013-08-24 17:12:00,89.2,73.9,29.99,NE,52,0.0,10.0,61,0.00,,,0.00,146.0,meteohub,2013-08-24 22:12:00,
2013-08-24 17:17:00,89.4,74.7,29.99,ENE,76,0.0,7.0,62,0.00,,,0.00,70.0,meteohub,2013-08-24 22:17:00,
2013-08-24 17:22:00,88.0,74.7,29.99,NE,35,2.0,5.0,65,0.00,,,0.00,28.0,meteohub,2013-08-24 22:22:00,
2013-08-24 17:27:00,85.6,75.9,30.01,ESE,113,7.0,9.0,73,0.00,,,0.00,26.0,meteohub,2013-08-24 22:27:00,
2013-08-24 17:32:00,81.3,74.1,30.01,NE,36,0.0,9.0,79,0.07,,,0.02,35.0,meteohub,2013-08-24 22:32:00,
2013-08-24 17:37:00,77.7,72.1,30.00,ENE,77,7.0,15.0,83,0.07,,,0.02,79.0,meteohub,2013-08-24 22:37:00,
2013-08-24 17:42:00,76.5,72.3,30.00,NNE,32,0.0,15.0,87,0.16,,,0.16,93.0,meteohub,2013-08-24 22:42:00,
2013-08-24 17:47:00,76.1,72.3,30.00,NE,34,0.0,15.0,88,0.16,,,0.16,98.0,meteohub,2013-08-24 22:47:00,
2013-08-24 17:52:00,76.3,73.0,30.00,NE,34,0.0,15.0,90,0.16,,,0.16,105.0,meteohub,2013-08-24 22:52:00,
2013-08-24 17:57:00,76.6,73.4,29.99,NE,34,0.0,15.0,90,0.16,,,0.16,111.0,meteohub,2013-08-24 22:57:00,
2013-08-24 18:02:00,76.8,73.6,29.99,NE,34,0.0,6.0,90,0.16,,,0.16,95.0,meteohub,2013-08-24 23:02:00,
2013-08-24 18:07:00,77.4,74.5,29.99,NE,34,0.0,2.0,91,0.16,,,0.16,95.0,meteohub,2013-08-24 23:07:00,
2013-08-24 18:12:00,77.7,74.5,29.99,NE,35,0.0,2.0,90,0.16,,,0.16,69.0,meteohub,2013-08-24 23:12:00,
2013-08-24 18:17:00,77.7,74.5,29.99,NNE,13,0.0,2.0,90,0.16,,,0.16,49.0,meteohub,2013-08-24 23:17:00,
2013-08-24 18:22:00,77.7,74.5,29.99,NNE,13,0.0,2.0,90,0.16,,,0.16,44.0,meteohub,2013-08-24 23:22:00,
2013-08-24 18:27:00,77.7,74.5,30.00,NNE,14,0.0,3.0,90,0.16,,,0.16,39.0,meteohub,2013-08-24 23:27:00,
2013-08-24 18:32:00,77.7,74.5,29.99,NNE,14,0.0,3.0,90,0.16,,,0.16,35.0,meteohub,2013-08-24 23:32:00,
2013-08-24 18:37:00,77.7,74.5,29.99,NNE,14,0.0,2.0,90,0.05,,,0.16,77.0,meteohub,2013-08-24 23:37:00,
2013-08-24 18:42:00,77.7,74.5,29.99,NNE,15,1.0,2.0,90,0.00,,,0.16,84.0,meteohub,2013-08-24 23:42:00,
2013-08-24 18:47:00,77.9,74.7,29.99,NNE,13,2.0,2.0,90,0.00,,,0.16,39.0,meteohub,2013-08-24 23:47:00,
2013-08-24 18:52:00,78.1,74.8,29.99,NNE,13,0.0,2.0,90,0.00,,,0.16,35.0,meteohub,2013-08-24 23:52:00,
2013-08-24 18:57:00,78.1,74.8,29.99,NNE,13,0.0,2.0,90,0.00,,,0.16,32.0,meteohub,2013-08-24 23:57:00,
2013-08-24 19:02:00,78.1,74.8,29.99,NNE,13,0.0,2.0,90,0.00,,,0.16,26.0,meteohub,2013-08-25 00:02:00,
2013-08-24 19:07:00,78.1,74.8,29.99,North,10,0.0,2.0,90,0.00,,,0.16,23.0,meteohub,2013-08-25 00:07:00,
2013-08-24 19:12:00,78.1,74.8,29.99,NNE,25,0.0,3.0,90,0.00,,,0.16,19.0,meteohub,2013-08-25 00:12:00,
2013-08-24 19:17:00,78.1,74.8,29.99,NNE,25,0.0,3.0,90,0.00,,,0.16,16.0,meteohub,2013-08-25 00:17:00,
2013-08-24 19:22:00,78.1,75.2,30.00,NNE,25,0.0,2.0,91,0.00,,,0.16,14.0,meteohub,2013-08-25 00:22:00,
2013-08-24 19:27:00,78.1,75.2,30.00,NNE,25,1.0,2.0,91,0.00,,,0.16,11.0,meteohub,2013-08-25 00:27:00,
2013-08-24 19:32:00,77.9,75.0,30.00,NNE,25,0.0,1.0,91,0.00,,,0.16,7.0,meteohub,2013-08-25 00:32:00,
2013-08-24 19:38:00,77.9,75.4,30.00,NNE,25,1.0,1.0,92,0.00,,,0.16,5.0,meteohub,2013-08-25 00:38:00,
2013-08-24 19:43:00,78.1,75.6,30.00,NNE,25,0.0,2.0,92,0.00,,,0.16,0.0,meteohub,2013-08-25 00:43:00,
2013-08-24 19:48:00,78.1,75.6,30.00,NNE,23,0.0,2.0,92,0.00,,,0.16,0.0,meteohub,2013-08-25 00:48:00,
2013-08-24 19:53:00,78.1,75.6,30.01,NNE,24,0.0,2.0,92,0.00,,,0.16,0.0,meteohub,2013-08-25 00:53:00,
2013-08-24 19:58:00,78.1,75.6,30.01,NNE,23,0.0,2.0,92,0.00,,,0.16,0.0,meteohub,2013-08-25 00:58:00,
2013-08-24 20:03:00,78.1,75.6,30.00,NNE,23,0.0,2.0,92,0.00,,,0.16,0.0,meteohub,2013-08-25 01:03:00,
2013-08-24 20:08:00,77.9,75.4,30.00,NNE,23,0.0,2.0,92,0.00,,,0.16,0.0,meteohub,2013-08-25 01:08:00,
2013-08-24 20:13:00,77.9,75.4,30.00,NNE,23,0.0,2.0,92,0.00,,,0.16,0.0,meteohub,2013-08-25 01:13:00,
2013-08-24 20:18:00,77.7,75.2,30.00,NNE,23,0.0,1.0,92,0.00,,,0.16,0.0,meteohub,2013-08-25 01:18:00,
2013-08-24 20:23:00,77.7,75.6,30.00,NNE,23,0.0,0.0,93,0.00,,,0.16,0.0,meteohub,2013-08-25 01:23:00,
2013-08-24 20:28:00,77.7,75.6,30.00,NNE,23,0.0,0.0,93,0.00,,,0.16,0.0,meteohub,2013-08-25 01:28:00,
2013-08-24 20:33:00,77.5,75.4,30.01,NNE,23,0.0,1.0,93,0.00,,,0.16,0.0,meteohub,2013-08-25 01:33:00,
2013-08-24 20:38:00,77.5,75.4,30.01,NNE,23,0.0,1.0,93,0.00,,,0.16,0.0,meteohub,2013-08-25 01:38:00,
2013-08-24 20:43:00,77.5,75.4,30.02,NNE,23,0.0,1.0,93,0.00,,,0.16,0.0,meteohub,2013-08-25 01:43:00,
2013-08-24 20:48:00,77.5,75.4,30.02,NNE,25,0.0,1.0,93,0.00,,,0.16,0.0,meteohub,2013-08-25 01:48:00,
2013-08-24 20:53:00,77.7,75.6,30.02,NNE,25,0.0,2.0,93,0.00,,,0.16,0.0,meteohub,2013-08-25 01:53:00,
2013-08-24 20:58:00,77.7,75.6,30.02,NNE,25,0.0,2.0,93,0.00,,,0.16,0.0,meteohub,2013-08-25 01:58:00,
2013-08-24 21:03:00,77.7,75.6,30.02,NNE,31,0.0,3.0,93,0.00,,,0.16,0.0,meteohub,2013-08-25 02:03:00,
2013-08-24 21:09:00,77.7,75.6,30.03,NNE,31,0.0,3.0,93,0.00,,,0.16,0.0,meteohub,2013-08-25 02:09:00,
2013-08-24 21:14:00,77.7,75.6,30.03,NNE,30,0.0,3.0,93,0.00,,,0.16,0.0,meteohub,2013-08-25 02:14:00,
2013-08-24 21:19:00,77.7,75.6,30.03,NNE,31,0.0,2.0,93,0.00,,,0.16,0.0,meteohub,2013-08-25 02:19:00,
2013-08-24 21:24:00,77.9,75.7,30.04,NNE,30,0.0,2.0,93,0.00,,,0.16,0.0,meteohub,2013-08-25 02:24:00,
2013-08-24 21:29:00,77.9,75.7,30.04,NNE,31,0.0,2.0,93,0.00,,,0.16,0.0,meteohub,2013-08-25 02:29:00,
2013-08-24 21:34:00,78.1,75.9,30.04,NNE,31,0.0,3.0,93,0.00,,,0.16,0.0,meteohub,2013-08-25 02:34:00,
2013-08-24 21:39:00,78.1,75.6,30.04,NNE,31,0.0,3.0,92,0.00,,,0.16,0.0,meteohub,2013-08-25 02:39:00,
2013-08-24 21:44:00,78.1,75.6,30.04,NNE,31,1.0,1.0,92,0.00,,,0.16,0.0,meteohub,2013-08-25 02:44:00,
2013-08-24 21:49:00,78.1,75.6,30.04,NNE,30,0.0,1.0,92,0.00,,,0.16,0.0,meteohub,2013-08-25 02:49:00,
2013-08-24 21:54:00,77.9,75.4,30.04,NNE,31,0.0,1.0,92,0.00,,,0.16,0.0,meteohub,2013-08-25 02:54:00,
2013-08-24 21:59:00,77.9,75.4,30.04,NNE,31,0.0,1.0,92,0.00,,,0.16,0.0,meteohub,2013-08-25 02:59:00,
2013-08-24 22:04:00,77.7,75.2,30.04,NNE,31,0.0,1.0,92,0.00,,,0.16,0.0,meteohub,2013-08-25 03:04:00,
2013-08-24 22:09:00,77.7,75.2,30.04,NNW,336,0.0,1.0,92,0.00,,,0.16,0.0,meteohub,2013-08-25 03:09:00,
2013-08-24 22:14:00,77.7,75.2,30.04,NNW,342,0.0,3.0,92,0.00,,,0.16,0.0,meteohub,2013-08-25 03:14:00,
2013-08-24 22:19:00,77.7,74.8,30.04,NNE,29,0.0,3.0,91,0.00,,,0.16,0.0,meteohub,2013-08-25 03:19:00,
2013-08-24 22:24:00,77.7,74.8,30.05,NE,43,0.0,4.0,91,0.00,,,0.16,0.0,meteohub,2013-08-25 03:24:00,
2013-08-24 22:29:00,77.7,74.8,30.05,North,352,0.0,4.0,91,0.00,,,0.16,0.0,meteohub,2013-08-25 03:29:00,
2013-08-24 22:34:00,77.7,74.8,30.05,North,8,0.0,4.0,91,0.00,,,0.16,0.0,meteohub,2013-08-25 03:34:00,
2013-08-24 22:39:00,77.7,74.8,30.06,NE,56,0.0,4.0,91,0.00,,,0.16,0.0,meteohub,2013-08-25 03:39:00,
2013-08-24 22:44:00,77.5,74.7,30.05,NE,38,0.0,3.0,91,0.00,,,0.16,0.0,meteohub,2013-08-25 03:44:00,
2013-08-24 22:49:00,77.5,74.7,30.06,NE,51,1.0,3.0,91,0.00,,,0.16,0.0,meteohub,2013-08-25 03:49:00,
2013-08-24 22:54:00,77.5,74.3,30.06,NE,42,1.0,4.0,90,0.00,,,0.16,0.0,meteohub,2013-08-25 03:54:00,
2013-08-24 22:59:00,77.5,74.3,30.06,NNE,31,0.0,4.0,90,0.00,,,0.16,0.0,meteohub,2013-08-25 03:59:00,
2013-08-24 23:01:00,77.5,74.3,30.06,NE,34,1.0,4.0,90,0.00,,,0.16,0.0,meteohub,2013-08-25 04:01:00,
2013-08-24 23:02:00,77.4,74.1,30.06,NE,39,3.0,4.0,90,0.00,,,0.16,0.0,meteohub,2013-08-25 04:02:00,
2013-08-24 23:07:00,77.4,74.1,30.06,NE,54,0.0,4.0,90,0.00,,,0.16,0.0,meteohub,2013-08-25 04:07:00,
2013-08-24 23:12:00,77.4,74.1,30.06,NE,43,0.0,4.0,90,0.00,,,0.16,0.0,meteohub,2013-08-25 04:12:00,
2013-08-24 23:17:00,77.4,74.1,30.06,NE,38,1.0,4.0,90,0.00,,,0.16,0.0,meteohub,2013-08-25 04:17:00,
2013-08-24 23:22:00,77.2,73.8,30.06,NE,39,0.0,6.0,89,0.00,,,0.16,0.0,meteohub,2013-08-25 04:22:00,
2013-08-24 23:27:00,77.2,73.8,30.07,ENE,75,0.0,6.0,89,0.00,,,0.16,0.0,meteohub,2013-08-25 04:27:00,
2013-08-24 23:32:00,77.2,73.8,30.08,NE,40,0.0,6.0,89,0.00,,,0.16,0.0,meteohub,2013-08-25 04:32:00,
2013-08-24 23:37:00,77.2,73.8,30.07,ENE,69,0.0,6.0,89,0.00,,,0.16,0.0,meteohub,2013-08-25 04:37:00,
2013-08-24 23:42:00,77.2,73.8,30.08,ENE,68,0.0,4.0,89,0.00,,,0.16,0.0,meteohub,2013-08-25 04:42:00,
2013-08-24 23:47:00,77.0,73.6,30.08,ENE,66,0.0,4.0,89,0.00,,,0.16,0.0,meteohub,2013-08-25 04:47:00,
2013-08-24 23:52:00,76.8,73.4,30.08,NE,36,0.0,2.0,89,0.00,,,0.16,0.0,meteohub,2013-08-25 04:52:00,
2013-08-24 23:57:00,76.8,73.4,30.08,NNE,21,0.0,2.0,89,0.00,,,0.16,0.0,meteohub,2013-08-25 04:57:00,